createdAt,value
2018-02-12T05:51:01.097Z,0.1
2018-02-12T05:53:01.124Z,0.2
2018-02-12T05:54:06.331Z,0.3
2018-02-12T05:56:01.071Z,0.4
2018-02-12T05:57:01.123Z,0.5
2018-02-12T05:59:01.397Z,0.6
2018-02-12T06:00:01.097Z,0.7
2018-02-12T06:01:01.133Z,0.9
2018-02-12T06:02:01.096Z,1.0
2018-02-12T06:03:01.103Z,1.2
2018-02-12T06:04:01.599Z,1.4
2018-02-12T06:05:01.096Z,1.6
2018-02-12T06:06:06.102Z,1.8
2018-02-12T06:07:01.102Z,2.1
2018-02-12T06:08:01.104Z,2.3
2018-02-12T06:09:01.345Z,2.7
2018-02-12T06:10:01.098Z,3.1
2018-02-12T06:11:01.117Z,3.6
2018-02-12T06:12:01.108Z,4.3
2018-02-12T06:13:01.107Z,5.1
2018-02-12T06:14:01.341Z,5.7
2018-02-12T06:15:01.100Z,6.4
2018-02-12T06:16:01.108Z,7.1
2018-02-12T06:17:01.137Z,8.3
2018-02-12T06:18:01.108Z,9.6
2018-02-12T06:19:01.347Z,11.1
2018-02-12T06:20:01.112Z,12.2
2018-02-12T06:21:01.109Z,12.9
2018-02-12T06:22:01.103Z,13.5
2018-02-12T06:23:01.103Z,14.5
2018-02-12T06:24:01.412Z,15.5
2018-02-12T06:25:01.108Z,16.7
2018-02-12T06:26:01.108Z,18.6
2018-02-12T06:27:01.112Z,21.1
2018-02-12T06:28:01.370Z,23.7
2018-02-12T06:29:01.333Z,26.9
2018-02-12T06:31:01.057Z,31.1
2018-02-12T06:32:01.089Z,35.5
2018-02-12T06:33:01.089Z,39.7
2018-02-12T06:34:01.126Z,43.9
2018-02-12T06:35:01.340Z,49.7
2018-02-12T06:36:01.091Z,60.9
2018-02-12T06:37:01.059Z,79.1
2018-02-12T06:38:01.094Z,105.6
2018-02-12T06:39:01.117Z,138.8
2018-02-12T06:40:01.308Z,179.1
2018-02-12T06:41:01.093Z,230.5
2018-02-12T06:42:01.330Z,287.5
2018-02-12T06:43:01.094Z,357.9
2018-02-12T06:44:01.129Z,438.7
2018-02-12T06:45:01.308Z,528.0
2018-02-12T06:46:01.093Z,622.0
2018-02-12T06:47:01.098Z,717.7
2018-02-12T06:48:06.122Z,822.3
2018-02-12T06:49:01.094Z,935.6
2018-02-12T06:50:01.539Z,1049.0
2018-02-12T06:51:01.069Z,1173.0
2018-02-12T06:52:01.123Z,1301.3
2018-02-12T06:53:01.141Z,1436.1
2018-02-12T06:54:01.104Z,1564.1
2018-02-12T06:55:01.309Z,1687.9
2018-02-12T06:56:01.160Z,1805.4
2018-02-12T06:57:01.099Z,1927.2
2018-02-12T06:58:01.141Z,2034.1
2018-02-12T06:59:01.094Z,2164.7
2018-02-12T07:00:01.311Z,2320.9
2018-02-12T07:01:01.065Z,2494.3
2018-02-12T07:02:01.096Z,2657.3
2018-02-12T07:03:01.120Z,2875.0
2018-02-12T07:04:01.068Z,3163.8
2018-02-12T07:05:01.316Z,3516.2
2018-02-12T07:06:01.094Z,3873.2
2018-02-12T07:07:01.132Z,4256.4
2018-02-12T07:08:01.110Z,4661.5
2018-02-12T07:09:01.106Z,5077.7
2018-02-12T07:10:01.304Z,5447.6
2018-02-12T07:11:01.101Z,5784.1
2018-02-12T07:12:01.128Z,6091.1
2018-02-12T07:13:01.100Z,6450.2
2018-02-12T07:14:01.105Z,6816.3
2018-02-12T07:15:01.310Z,7108.2
2018-02-12T07:16:01.101Z,7340.6
2018-02-12T07:17:01.130Z,7571.1
2018-02-12T07:18:01.107Z,7722.2
2018-02-12T07:19:01.105Z,7787.9
2018-02-12T07:20:01.339Z,7745.1
2018-02-12T07:21:01.109Z,7632.1
2018-02-12T07:22:01.218Z,7562.5
2018-02-12T07:23:01.140Z,7501.9
2018-02-12T07:25:01.323Z,7534.3
2018-02-12T07:26:01.091Z,7619.2
2018-02-12T07:27:01.094Z,7712.3
2018-02-12T07:28:01.089Z,7758.9
2018-02-12T07:29:01.133Z,7795.2
2018-02-12T07:30:01.292Z,7802.3
2018-02-12T07:31:01.092Z,7933.7
2018-02-12T07:32:01.117Z,8191.4
2018-02-12T07:33:01.089Z,8497.8
2018-02-12T07:34:01.102Z,8865.3
2018-02-12T07:35:01.326Z,9313.5
2018-02-12T07:36:01.091Z,9873.6
2018-02-12T07:37:01.137Z,10444.5
2018-02-12T07:38:01.097Z,10955.7
2018-02-12T07:39:06.095Z,11604.5
2018-02-12T07:40:01.305Z,12373.3
2018-02-12T07:41:01.100Z,13188.7
2018-02-12T07:42:02.167Z,14182.5
2018-02-12T07:43:06.093Z,15537.7
2018-02-12T07:44:01.099Z,16744.7
2018-02-12T07:45:01.308Z,17813.6
2018-02-12T07:46:01.094Z,18643.5
2018-02-12T07:47:01.121Z,19501.1
2018-02-12T07:48:01.099Z,20261.8
2018-02-12T07:49:01.130Z,20926.5
2018-02-12T07:50:01.334Z,21337.7
2018-02-12T07:51:01.104Z,21272.1
2018-02-12T07:52:01.102Z,20996.1
2018-02-12T07:53:01.099Z,20782.3
2018-02-12T07:54:01.192Z,20793.5
2018-02-12T07:55:01.307Z,20479.6
2018-02-12T07:56:01.101Z,20214.5
2018-02-12T07:57:01.161Z,19661.9
2018-02-12T07:58:01.232Z,19004.9
2018-02-12T07:59:01.123Z,18545.1
2018-02-12T08:00:01.309Z,18307.1
2018-02-12T08:01:01.136Z,18263.5
2018-02-12T08:02:01.360Z,18123.3
2018-02-12T08:03:01.070Z,18035.1
2018-02-12T08:04:06.101Z,17902.0
2018-02-12T08:05:01.335Z,17772.0
2018-02-12T08:06:01.142Z,18024.7
2018-02-12T08:07:01.103Z,18587.0
2018-02-12T08:08:01.131Z,19141.3
2018-02-12T08:09:01.110Z,19382.6
2018-02-12T08:10:01.810Z,19694.9
2018-02-12T08:11:01.136Z,19752.2
2018-02-12T08:12:01.132Z,19989.5
2018-02-12T08:13:01.405Z,19998.7
2018-02-12T08:14:01.113Z,19997.5
2018-02-12T08:15:01.324Z,19856.3
2018-02-12T08:16:01.123Z,19523.3
2018-02-12T08:17:01.106Z,19250.1
2018-02-12T08:18:01.141Z,19098.2
2018-02-12T08:19:01.107Z,19113.8
2018-02-12T08:20:01.312Z,19409.7
2018-02-12T08:22:02.119Z,19942.5
2018-02-12T08:23:01.087Z,20436.9
2018-02-12T08:24:06.091Z,20690.3
2018-02-12T08:25:01.091Z,20927.7
2018-02-12T08:26:01.319Z,21275.2
2018-02-12T08:27:06.105Z,21850.5
2018-02-12T08:28:01.098Z,22486.9
2018-02-12T08:29:01.120Z,23415.6
2018-02-12T08:30:01.100Z,24421.6
2018-02-12T08:31:01.315Z,25604.3
2018-02-12T08:32:01.097Z,27055.5
2018-02-12T08:33:01.092Z,28562.2
2018-02-12T08:34:01.124Z,29846.2
2018-02-12T08:35:01.100Z,30701.5
2018-02-12T08:36:01.341Z,31334.7
2018-02-12T08:37:01.094Z,31808.4
2018-02-12T08:38:02.215Z,32359.7
2018-02-12T08:39:01.101Z,33106.8
2018-02-12T08:40:01.095Z,33822.1
2018-02-12T08:41:01.321Z,34477.5
2018-02-12T08:42:01.100Z,35079.9
2018-02-12T08:43:01.125Z,35514.5
2018-02-12T08:44:01.100Z,35689.7
2018-02-12T08:45:01.110Z,35537.9
2018-02-12T08:46:01.561Z,35296.8
2018-02-12T08:47:01.098Z,35157.9
2018-02-12T08:48:01.127Z,35128.5
2018-02-12T08:49:01.105Z,35258.7
2018-02-12T08:50:01.098Z,35801.5
2018-02-12T08:51:01.320Z,36422.9
2018-02-12T08:52:01.098Z,36711.1
2018-02-12T08:53:01.131Z,36960.1
2018-02-12T08:54:01.095Z,37032.7
2018-02-12T08:55:01.361Z,37498.6
2018-02-12T08:56:01.308Z,38303.2
2018-02-12T08:57:01.099Z,39255.7
2018-02-12T08:58:01.132Z,40287.7
2018-02-12T08:59:12.132Z,41440.9
2018-02-12T09:00:01.111Z,42921.9
2018-02-12T09:01:01.311Z,44147.7
2018-02-12T09:02:06.111Z,44883.9
2018-02-12T09:03:01.136Z,45164.9
2018-02-12T09:04:01.100Z,45410.9
2018-02-12T09:05:01.103Z,45881.0
2018-02-12T09:06:01.440Z,46394.5
2018-02-12T09:07:01.100Z,47412.9
2018-02-12T09:08:01.136Z,48426.1
2018-02-12T09:09:01.106Z,49617.1
2018-02-12T09:10:01.101Z,50310.9
2018-02-12T09:11:01.346Z,50686.0
2018-02-12T09:12:01.108Z,50801.7
2018-02-12T09:13:01.134Z,50838.3
2018-02-12T09:14:01.103Z,50763.3
2018-02-12T09:15:01.130Z,50467.1
2018-02-12T09:16:01.318Z,50192.1
2018-02-12T09:18:01.090Z,50379.1
2018-02-12T09:19:01.090Z,51105.1
2018-02-12T09:20:01.134Z,51999.1
2018-02-12T09:21:01.089Z,52737.9
2018-02-12T09:22:01.298Z,53840.1
2018-02-12T09:23:01.095Z,54718.1
2018-02-12T09:24:01.059Z,55541.6
2018-02-12T09:25:01.127Z,56333.8
2018-02-12T09:26:01.107Z,57182.3
2018-02-12T09:27:01.269Z,57990.6
2018-02-12T09:28:01.092Z,58676.0
2018-02-12T09:29:06.099Z,59134.7
2018-02-12T09:30:01.133Z,59197.8
2018-02-12T09:31:01.101Z,58844.6
2018-02-12T09:32:01.366Z,58447.7
2018-02-12T09:33:01.099Z,57757.7
2018-02-12T09:34:01.093Z,56608.7
2018-02-12T09:35:01.166Z,55166.5
2018-02-12T09:36:01.096Z,53475.8
2018-02-12T09:37:01.353Z,51282.7
2018-02-12T09:38:01.099Z,49101.4
2018-02-12T09:39:01.127Z,46895.0
2018-02-12T09:40:01.099Z,44724.2
2018-02-12T09:41:01.092Z,42675.1
2018-02-12T09:42:01.319Z,40521.1
2018-02-12T09:43:01.113Z,38568.0
2018-02-12T09:44:01.131Z,36841.8
2018-02-12T09:45:01.103Z,35457.7
2018-02-12T09:46:01.102Z,34628.3
2018-02-12T09:47:01.304Z,34369.5
2018-02-12T09:48:01.099Z,34205.9
2018-02-12T09:49:01.161Z,34214.3
2018-02-12T09:50:01.102Z,34819.8
2018-02-12T09:51:01.100Z,36023.1
2018-02-12T09:52:01.311Z,37626.4
2018-02-12T09:53:01.116Z,38626.3
2018-02-12T09:54:01.134Z,39167.1
2018-02-12T09:55:01.100Z,39484.8
2018-02-12T09:56:01.102Z,39129.3
2018-02-12T09:57:01.317Z,38624.2
2018-02-12T09:58:01.098Z,37886.3
2018-02-12T09:59:01.134Z,37053.9
2018-02-12T10:00:01.106Z,36138.5
2018-02-12T10:01:01.099Z,35081.5
2018-02-12T10:02:01.309Z,33746.9
2018-02-12T10:03:01.146Z,32521.3
2018-02-12T10:04:01.128Z,31384.5
2018-02-12T10:05:01.109Z,29908.2
2018-02-12T10:06:01.099Z,27973.3
2018-02-12T10:07:01.304Z,26030.5
2018-02-12T10:08:01.097Z,24677.7
2018-02-12T10:09:01.138Z,23904.0
2018-02-12T10:10:01.106Z,23480.9
2018-02-12T10:11:01.101Z,23553.6
2018-02-12T10:12:01.307Z,24012.6
2018-02-12T10:13:01.102Z,25361.7
2018-02-12T10:14:01.130Z,26721.9
2018-02-12T10:15:01.103Z,28053.1
2018-02-12T10:16:01.134Z,29229.4
2018-02-12T10:17:01.379Z,30009.3
2018-02-12T10:18:01.100Z,30556.8
2018-02-12T10:19:01.074Z,30953.1
2018-02-12T10:20:01.125Z,31014.2
2018-02-12T10:21:01.141Z,30974.6
2018-02-12T10:22:01.313Z,30765.7
2018-02-12T10:24:01.054Z,30702.1
2018-02-12T10:25:01.203Z,30274.4
2018-02-12T10:26:01.128Z,29468.4
2018-02-12T10:27:01.231Z,28568.5
2018-02-12T10:28:01.294Z,27730.7
2018-02-12T10:29:01.088Z,26513.8
2018-02-12T10:30:01.140Z,25301.5
2018-02-12T10:31:01.098Z,24506.9
2018-02-12T10:32:02.145Z,24073.9
2018-02-12T10:33:01.301Z,24051.0
2018-02-12T10:34:01.296Z,24208.4
2018-02-12T10:35:01.093Z,24536.0
2018-02-12T10:36:01.093Z,25021.5
2018-02-12T10:37:01.094Z,25663.9
2018-02-12T10:38:01.324Z,26131.2
2018-02-12T10:39:06.092Z,26312.3
2018-02-12T10:40:01.094Z,26406.0
2018-02-12T10:41:01.100Z,26601.3
2018-02-12T10:42:01.092Z,26848.3
2018-02-12T10:43:01.308Z,26536.1
2018-02-12T10:44:01.119Z,25752.9
2018-02-12T10:45:01.088Z,25024.9
2018-02-12T10:46:01.098Z,24020.5
2018-02-12T10:47:01.098Z,22772.5
2018-02-12T10:48:01.461Z,21331.9
2018-02-12T10:49:01.095Z,19976.6
2018-02-12T10:50:01.123Z,18581.3
2018-02-12T10:51:01.091Z,17230.1
2018-02-12T10:52:01.096Z,15603.5
2018-02-12T10:53:01.498Z,14021.9
2018-02-12T10:54:01.126Z,12935.0
2018-02-12T10:55:01.120Z,12442.8
2018-02-12T10:56:06.097Z,12132.9
2018-02-12T10:57:01.102Z,12150.3
2018-02-12T10:58:01.330Z,12695.9
2018-02-12T10:59:01.141Z,13378.5
2018-02-12T11:00:01.099Z,13792.3
2018-02-12T11:01:01.092Z,14329.6
2018-02-12T11:02:01.092Z,15408.9
2018-02-12T11:03:01.305Z,16805.9
2018-02-12T11:04:01.124Z,18451.5
2018-02-12T11:05:01.096Z,20384.6
2018-02-12T11:06:01.095Z,22437.9
2018-02-12T11:07:01.094Z,24954.8
2018-02-12T11:08:01.305Z,27692.3
2018-02-12T11:09:01.130Z,30311.1
2018-02-12T11:10:01.103Z,33131.8
2018-02-12T11:11:01.066Z,36265.1
2018-02-12T11:12:01.103Z,39232.5
2018-02-12T11:13:01.302Z,42036.9
2018-02-12T11:14:01.133Z,44906.3
2018-02-12T11:15:01.098Z,48123.0
2018-02-12T11:16:01.095Z,51234.6
2018-02-12T11:17:01.101Z,53907.5
2018-02-12T11:18:01.306Z,56383.5
2018-02-12T11:19:01.147Z,58474.7
2018-02-12T11:20:01.103Z,60168.5
2018-02-12T11:21:01.110Z,61726.1
2018-02-12T11:22:01.099Z,63023.7
2018-02-12T11:23:01.308Z,64141.9
2018-02-12T11:24:01.139Z,65026.6
2018-02-12T11:25:01.106Z,65471.5
2018-02-12T11:26:01.108Z,65535.0
2018-02-12T11:30:02.472Z,65535.0
2018-02-12T11:45:01.089Z,65535.0
2018-02-12T12:00:02.484Z,65535.0
2018-02-12T12:15:01.101Z,65535.0
2018-02-12T12:30:01.101Z,65535.0
2018-02-12T12:45:01.134Z,65535.0
2018-02-12T13:00:01.098Z,65535.0
2018-02-12T13:15:01.138Z,65535.0
2018-02-12T13:30:01.161Z,65535.0
2018-02-12T13:45:01.596Z,65535.0
2018-02-12T13:48:01.102Z,65447.7
2018-02-12T13:49:01.135Z,65215.6
2018-02-12T13:50:01.320Z,64298.8
2018-02-12T13:51:01.101Z,63120.2
2018-02-12T13:52:01.103Z,61621.3
2018-02-12T13:53:01.099Z,60172.6
2018-02-12T13:54:01.133Z,58864.4
2018-02-12T13:55:01.264Z,57969.7
2018-02-12T13:56:01.106Z,57600.1
2018-02-12T13:57:01.104Z,57357.9
2018-02-12T13:58:01.108Z,56030.1
2018-02-12T13:59:01.137Z,54072.1
2018-02-12T14:00:01.307Z,51930.3
2018-02-12T14:01:01.102Z,49664.3
2018-02-12T14:02:01.110Z,47403.2
2018-02-12T14:03:01.107Z,45450.1
2018-02-12T14:04:01.126Z,43746.7
2018-02-12T14:05:01.315Z,42817.0
2018-02-12T14:07:01.087Z,43995.6
2018-02-12T14:08:01.116Z,45494.5
2018-02-12T14:09:01.090Z,46943.2
2018-02-12T14:10:01.089Z,48251.4
2018-02-12T14:11:01.293Z,49146.1
2018-02-12T14:12:01.090Z,48679.1
2018-02-12T14:13:01.111Z,47000.7
2018-02-12T14:14:01.092Z,46076.6
2018-02-12T14:15:01.124Z,45494.3
2018-02-12T14:16:01.393Z,45181.5
2018-02-12T14:17:01.092Z,45326.1
2018-02-12T14:18:01.091Z,45593.5
2018-02-12T14:19:01.092Z,45395.9
2018-02-12T14:20:01.095Z,45183.5
2018-02-12T14:21:01.332Z,45631.3
2018-02-12T14:27:01.333Z,46467.8
2018-02-12T14:28:01.120Z,48388.4
2018-02-12T14:29:01.097Z,50640.4
2018-02-12T14:30:01.091Z,53180.7
2018-02-12T14:31:01.090Z,55635.3
2018-02-12T14:32:01.368Z,57756.7
2018-02-12T14:33:01.126Z,59750.4
2018-02-12T14:34:01.099Z,61988.3
2018-02-12T14:35:01.097Z,64136.3
2018-02-12T14:36:01.101Z,65535.0
2018-02-12T14:39:01.097Z,65425.3
2018-02-12T14:40:01.093Z,64843.5
2018-02-12T14:45:01.344Z,64843.5
2018-02-12T14:50:02.358Z,64028.4
2018-02-12T14:51:01.092Z,62829.3
2018-02-12T14:52:01.103Z,61372.0
2018-02-12T14:53:01.100Z,59764.5
2018-02-12T14:54:01.102Z,58136.5
2018-02-12T14:55:01.377Z,56879.1
2018-02-12T14:56:01.105Z,54967.7
2018-02-12T14:57:01.064Z,52980.9
2018-02-12T14:58:01.127Z,50652.0
2018-02-12T14:59:01.106Z,48110.2
2018-02-12T15:00:01.351Z,45393.1
2018-02-12T15:01:01.098Z,42527.7
2018-02-12T15:02:01.107Z,39555.1
2018-02-12T15:03:01.107Z,36486.9
2018-02-12T15:04:01.102Z,33315.1
2018-02-12T15:06:01.333Z,30781.8
2018-02-12T15:07:01.088Z,28407.0
2018-02-12T15:08:01.087Z,26050.6
2018-02-12T15:09:01.095Z,23537.5
2018-02-12T15:10:01.092Z,21133.5
2018-02-12T15:11:01.317Z,18843.4
2018-02-12T15:12:01.083Z,16699.5
2018-02-12T15:13:01.110Z,14697.1
2018-02-12T15:14:01.083Z,13197.9
2018-02-12T15:15:01.084Z,12017.5
2018-02-12T15:16:01.295Z,11110.3
2018-02-12T15:17:01.115Z,10599.5
2018-02-12T15:18:06.090Z,10144.9
2018-02-12T15:19:01.087Z,9948.7
2018-02-12T15:20:01.056Z,10099.7
2018-02-12T15:21:01.368Z,10950.7
2018-02-12T15:22:01.114Z,11814.1
2018-02-12T15:23:01.089Z,13138.5
2018-02-12T15:24:01.056Z,15304.7
2018-02-12T15:25:01.091Z,17953.2
2018-02-12T15:26:01.301Z,20474.7
2018-02-12T15:27:01.133Z,22701.5
2018-02-12T15:28:01.090Z,24449.9
2018-02-12T15:29:01.093Z,25595.0
2018-02-12T15:30:01.091Z,26235.8
2018-02-12T15:31:01.297Z,26536.5
2018-02-12T15:32:01.064Z,26432.3
2018-02-12T15:33:01.117Z,26311.5
2018-02-12T15:34:01.089Z,25972.5
2018-02-12T15:35:01.121Z,25389.8
2018-02-12T15:36:01.324Z,24278.5
2018-02-12T15:37:01.090Z,23379.3
2018-02-12T15:38:01.093Z,22245.9
2018-02-12T15:39:01.140Z,20606.4
2018-02-12T15:40:01.187Z,18517.0
2018-02-12T15:41:01.303Z,16525.9
2018-02-12T15:42:01.094Z,14726.7
2018-02-12T15:43:01.097Z,13318.5
2018-02-12T15:44:01.102Z,12334.7
2018-02-12T15:45:01.122Z,11734.3
2018-02-12T15:46:01.300Z,11359.3
2018-02-12T15:47:01.093Z,11124.2
2018-02-12T15:48:01.094Z,10938.4
2018-02-12T15:49:01.096Z,10790.9
2018-02-12T15:50:01.125Z,10628.5
2018-02-12T15:51:01.303Z,10458.7
2018-02-12T15:52:01.093Z,10275.7
2018-02-12T15:53:01.097Z,10094.3
2018-02-12T15:54:01.095Z,9871.9
2018-02-12T15:55:01.126Z,9626.1
2018-02-12T15:56:01.483Z,9387.5
2018-02-12T15:57:01.133Z,9167.3
2018-02-12T15:58:01.066Z,8956.9
2018-02-12T15:59:01.106Z,8751.7
2018-02-12T16:01:01.285Z,8534.6
2018-02-12T16:02:01.049Z,8321.7
2018-02-12T16:03:01.124Z,8112.7
2018-02-12T16:04:01.083Z,7908.1
2018-02-12T16:05:01.050Z,7703.9
2018-02-12T16:06:01.293Z,7494.5
2018-02-12T16:07:01.089Z,7274.9
2018-02-12T16:08:01.086Z,7047.5
2018-02-12T16:09:01.086Z,6810.4
2018-02-12T16:10:01.085Z,6563.2
2018-02-12T16:11:01.296Z,6308.9
2018-02-12T16:12:01.052Z,6048.3
2018-02-12T16:13:01.060Z,5781.3
2018-02-12T16:14:01.087Z,5504.3
2018-02-12T16:15:01.109Z,5223.5
2018-02-12T16:16:01.295Z,4958.0
2018-02-12T16:17:01.086Z,4694.7
2018-02-12T16:18:01.088Z,4427.8
2018-02-12T16:19:01.114Z,4163.0
2018-02-12T16:20:01.058Z,3905.0
2018-02-12T16:21:01.296Z,3659.1
2018-02-12T16:22:01.095Z,3425.9
2018-02-12T16:23:01.063Z,3205.8
2018-02-12T16:24:01.133Z,2997.1
2018-02-12T16:25:01.089Z,2797.5
2018-02-12T16:26:01.297Z,2602.2
2018-02-12T16:27:01.095Z,2408.1
2018-02-12T16:28:01.088Z,2220.3
2018-02-12T16:29:01.090Z,2045.8
2018-02-12T16:30:01.120Z,1880.3
2018-02-12T16:31:01.300Z,1720.6
2018-02-12T16:32:01.089Z,1566.6
2018-02-12T16:33:01.096Z,1423.5
2018-02-12T16:34:01.101Z,1286.3
2018-02-12T16:35:01.121Z,1152.2
2018-02-12T16:36:01.329Z,1022.4
2018-02-12T16:37:01.094Z,898.9
2018-02-12T16:38:01.096Z,781.5
2018-02-12T16:39:01.060Z,671.4
2018-02-12T16:40:01.119Z,572.3
2018-02-12T16:41:01.334Z,486.5
2018-02-12T16:42:01.093Z,413.9
2018-02-12T16:43:01.096Z,351.1
2018-02-12T16:44:01.071Z,295.7
2018-02-12T16:45:01.136Z,247.0
2018-02-12T16:46:01.340Z,203.6
2018-02-12T16:47:01.100Z,164.8
2018-02-12T16:48:01.099Z,131.4
2018-02-12T16:49:01.095Z,103.7
2018-02-12T16:50:01.099Z,82.7
2018-02-12T16:51:01.334Z,65.5
2018-02-12T16:52:01.101Z,51.8
2018-02-12T16:53:01.100Z,41.1
2018-02-12T16:54:01.096Z,32.8
2018-02-12T16:55:01.095Z,26.6
2018-02-12T16:56:01.328Z,21.9
2018-02-12T16:57:01.129Z,18.2
2018-02-12T16:58:01.068Z,15.4
2018-02-12T16:59:01.094Z,13.4
2018-02-12T17:00:01.102Z,12.0
2018-02-12T17:01:01.348Z,11.1
2018-02-12T17:02:01.064Z,10.4
2018-02-12T17:03:01.098Z,10.0
2018-02-12T17:04:01.104Z,9.7
2018-02-12T17:05:01.121Z,9.4
2018-02-12T17:06:01.313Z,9.2
2018-02-12T17:07:01.103Z,9.0
2018-02-12T17:08:01.100Z,8.8
2018-02-12T17:09:01.100Z,8.5
2018-02-12T17:10:01.131Z,8.3
2018-02-12T17:11:01.314Z,7.9
2018-02-12T17:12:01.100Z,7.5
2018-02-12T17:13:01.100Z,7.1
2018-02-12T17:15:01.115Z,6.6
2018-02-12T17:16:01.287Z,6.1
2018-02-12T17:17:01.062Z,5.5
2018-02-12T17:18:01.059Z,4.9
2018-02-12T17:19:01.089Z,4.3
2018-02-12T17:20:01.087Z,3.7
2018-02-12T17:21:01.316Z,3.3
2018-02-12T17:22:01.085Z,2.9
2018-02-12T17:23:01.120Z,2.4
2018-02-12T17:24:01.086Z,2.0
2018-02-12T17:25:01.088Z,1.7
2018-02-12T17:26:01.319Z,1.3
2018-02-12T17:27:01.089Z,1.1
2018-02-12T17:28:01.090Z,0.9
2018-02-12T17:29:01.091Z,0.7
2018-02-12T17:30:01.093Z,0.5
2018-02-12T17:31:01.328Z,0.4
2018-02-12T17:32:01.091Z,0.3
2018-02-12T17:34:01.102Z,0.2
2018-02-12T17:35:01.066Z,0.1
